Terminal Aerodrome Forecast
Issued by NWS Detroit/Pontiac, MI

Home | Current Version | Previous Version | Text Only | Print | Product List | Glossary On
Versions: 1 2 3 4 5 6 7 8 9 10 11 12 13 14 15 16 17 18 19 20 21 22 23 24 25
000
FTUS43 KDTX 301124
TAFDTW
TAF
KDTW 301124Z 3012/3118 03005KT P6SM VCTS SCT025CB BKN080 OVC120
     FM301400 05008KT P6SM VCSH SCT040 BKN080 BKN120
     FM302000 08008KT P6SM BKN060 BKN120 PROB30 3021/3101 4SM TSRA
      OVC035CB
     FM310200 04006KT P6SM BKN120
     FM310800 VRB04KT 5SM BR SCT025
     FM311200 VRB05KT P6SM SCT030 BKN060=

USA.gov is the U.S. government's official web portal to all federal, state and local government web resources and services.